12N weather

Aeroflex-Andover Airport
Andover, New Jersey, United States

Public forecast

Using degrees Fahrenheit for public forecast. Weather courtesy of forecast.io.

Current aviation weather report (METAR) for Aeroflex-Andover Airport

Retrieved 2019/12/14 06:54 UTC (31 minutes ago):

K12N 140654Z AUTO 03006KT 04/03 A2975 RMK AO1 SLP082 P0003 T00390033

Closest aviation forecast (TAF) to Aeroflex-Andover Airport

Closest forecast is Newark Liberty International Airport, 32.1 nm (59.4 km) SE. Retrieved 2019/12/14 06:33 UTC (52 minutes ago):

TAF KEWR 140530Z 1406/1512 05008KT 2SM RA BR OVC003 FM140900 VRB04KT 1SM -RA BR OVC003 FM141500 VRB05KT 2SM -RA BR OVC005 FM141900 17010G18KT 3SM -RA BR BKN008 OVC012 FM142300 23018G28KT P6SM BKN015 OVC025 FM150500 26020G32KT P6SM BKN035 FM151100 27022G35KT P6SM BKN045